createdAt,value
2022-11-21T00:02:18.735Z,100.00
2022-11-21T00:05:42.464Z,100.00
2022-11-21T00:08:44.960Z,100.00
2022-11-21T00:11:46.671Z,100.00
2022-11-21T00:14:48.463Z,100.00
2022-11-21T00:17:50.613Z,100.00
2022-11-21T00:20:52.451Z,100.00
2022-11-21T00:23:54.201Z,100.00
2022-11-21T00:26:56.360Z,100.00
2022-11-21T00:29:58.008Z,100.00
2022-11-21T00:32:59.776Z,100.00
2022-11-21T00:36:09.015Z,100.00
2022-11-21T00:39:10.827Z,100.00
2022-11-21T00:42:15.644Z,100.00
2022-11-21T00:45:22.703Z,100.00
2022-11-21T00:48:26.028Z,100.00
2022-11-21T00:51:30.878Z,100.00
2022-11-21T00:54:32.517Z,100.00
2022-11-21T00:57:37.263Z,100.00
2022-11-21T01:00:39.000Z,100.00
2022-11-21T01:03:40.868Z,100.00
2022-11-21T01:06:42.612Z,100.00
2022-11-21T01:09:44.242Z,100.00
2022-11-21T01:12:46.156Z,100.00
2022-11-21T01:15:47.915Z,100.00
2022-11-21T01:18:49.757Z,100.00
2022-11-21T01:21:51.323Z,100.00
2022-11-21T01:24:53.137Z,100.00
2022-11-21T01:27:54.663Z,100.00
2022-11-21T01:30:56.566Z,100.00
2022-11-21T01:33:58.779Z,100.00
2022-11-21T01:37:01.320Z,100.00
2022-11-21T01:40:04.028Z,100.00
2022-11-21T01:43:14.813Z,100.00
2022-11-21T01:46:21.570Z,100.00
2022-11-21T01:49:31.251Z,100.00
2022-11-21T01:52:33.140Z,100.00
2022-11-21T01:55:35.335Z,100.00
2022-11-21T01:58:37.053Z,100.00
2022-11-21T02:01:39.284Z,100.00
2022-11-21T02:04:42.677Z,100.00
2022-11-21T02:07:46.364Z,100.00
2022-11-21T02:10:56.207Z,100.00
2022-11-21T02:13:58.043Z,100.00
2022-11-21T02:17:00.767Z,100.00
2022-11-21T02:20:05.910Z,100.00
2022-11-21T02:23:21.003Z,100.00
2022-11-21T02:26:22.997Z,100.00
2022-11-21T02:29:24.814Z,100.00
2022-11-21T02:32:34.341Z,100.00
2022-11-21T02:35:36.837Z,100.00
2022-11-21T02:38:39.028Z,100.00
2022-11-21T02:41:49.038Z,100.00
2022-11-21T02:45:21.664Z,100.00
2022-11-21T02:48:23.472Z,100.00
2022-11-21T02:51:25.399Z,100.00
2022-11-21T02:54:27.342Z,100.00
2022-11-21T02:57:29.233Z,100.00
2022-11-21T03:00:31.118Z,100.00
2022-11-21T03:03:32.654Z,100.00
2022-11-21T03:06:34.489Z,100.00
2022-11-21T03:09:35.995Z,100.00
2022-11-21T03:12:42.525Z,100.00
2022-11-21T03:15:44.117Z,100.00
2022-11-21T03:18:45.808Z,100.00
2022-11-21T03:21:47.566Z,100.00
2022-11-21T03:24:49.254Z,100.00
2022-11-21T03:27:52.527Z,100.00
2022-11-21T03:30:54.325Z,100.00
2022-11-21T03:33:56.205Z,100.00
2022-11-21T03:36:57.929Z,100.00
2022-11-21T03:39:59.708Z,100.00
2022-11-21T03:43:07.983Z,100.00
2022-11-21T03:46:09.630Z,100.00
2022-11-21T03:49:12.265Z,100.00
2022-11-21T03:52:13.877Z,100.00
2022-11-21T03:55:15.601Z,100.00
2022-11-21T03:58:17.191Z,100.00
2022-11-21T04:01:19.654Z,100.00
2022-11-21T04:04:21.353Z,100.00
2022-11-21T04:07:23.470Z,100.00
2022-11-21T04:10:25.232Z,100.00
2022-11-21T04:13:27.081Z,100.00
2022-11-21T04:16:28.813Z,100.00
2022-11-21T04:19:30.590Z,100.00
2022-11-21T04:22:32.236Z,100.00
2022-11-21T04:25:33.940Z,100.00
2022-11-21T04:28:35.667Z,100.00
2022-11-21T04:31:37.374Z,100.00
2022-11-21T04:34:39.803Z,100.00
2022-11-21T04:37:41.663Z,100.00
2022-11-21T04:40:43.855Z,100.00
2022-11-21T04:43:45.486Z,100.00
2022-11-21T04:46:47.481Z,100.00
2022-11-21T04:49:49.124Z,100.00
2022-11-21T04:52:56.037Z,100.00
2022-11-21T04:55:58.056Z,100.00
2022-11-21T04:58:59.629Z,100.00
2022-11-21T05:02:03.283Z,100.00
2022-11-21T05:05:05.416Z,100.00
2022-11-21T05:08:07.184Z,100.00
2022-11-21T05:11:27.680Z,100.00
2022-11-21T05:14:29.731Z,100.00
2022-11-21T05:17:31.824Z,100.00
2022-11-21T05:20:36.824Z,100.00
2022-11-21T05:23:38.788Z,100.00
2022-11-21T05:26:40.562Z,100.00
2022-11-21T05:29:42.310Z,100.00
2022-11-21T05:32:44.425Z,100.00
2022-11-21T05:35:46.569Z,100.00
2022-11-21T05:38:48.506Z,100.00
2022-11-21T05:41:50.081Z,100.00
2022-11-21T05:44:51.919Z,100.00
2022-11-21T05:47:53.508Z,100.00
2022-11-21T05:50:55.133Z,100.00
2022-11-21T05:53:57.056Z,100.00
2022-11-21T05:56:58.636Z,100.00
2022-11-21T06:00:00.349Z,100.00
2022-11-21T06:03:20.964Z,100.00
2022-11-21T06:06:24.953Z,100.00
2022-11-21T06:09:26.811Z,100.00
2022-11-21T06:12:28.498Z,100.00
2022-11-21T06:15:30.228Z,100.00
2022-11-21T06:18:44.024Z,100.00
2022-11-21T06:21:45.696Z,100.00
2022-11-21T06:24:47.462Z,100.00
2022-11-21T06:27:49.198Z,100.00
2022-11-21T06:30:52.180Z,100.00
2022-11-21T06:33:56.580Z,100.00
2022-11-21T06:36:58.403Z,100.00
2022-11-21T06:40:00.374Z,100.00
2022-11-21T06:43:02.222Z,100.00
2022-11-21T06:46:04.414Z,100.00
2022-11-21T06:49:06.185Z,100.00
2022-11-21T06:52:07.847Z,100.00
2022-11-21T06:55:10.547Z,100.00
2022-11-21T06:58:12.290Z,100.00
2022-11-21T07:01:13.943Z,100.00
2022-11-21T07:04:15.662Z,100.00
2022-11-21T07:07:17.457Z,100.00
2022-11-21T07:10:18.985Z,100.00
2022-11-21T07:13:23.624Z,100.00
2022-11-21T07:16:26.616Z,100.00
2022-11-21T07:19:28.664Z,100.00
2022-11-21T07:22:30.728Z,100.00
2022-11-21T07:25:36.413Z,100.00
2022-11-21T07:28:38.649Z,100.00
2022-11-21T07:31:40.301Z,100.00
2022-11-21T07:34:42.080Z,100.00
2022-11-21T07:37:44.035Z,100.00
2022-11-21T07:40:46.574Z,100.00
2022-11-21T07:43:48.203Z,100.00
2022-11-21T07:46:53.757Z,100.00
2022-11-21T07:49:55.574Z,100.00
2022-11-21T07:53:07.041Z,100.00
2022-11-21T07:56:09.910Z,100.00
2022-11-21T07:59:11.823Z,100.00
2022-11-21T08:02:19.589Z,100.00
2022-11-21T08:05:21.405Z,100.00
2022-11-21T08:08:22.993Z,100.00
2022-11-21T08:11:25.892Z,100.00
2022-11-21T08:14:27.840Z,100.00
2022-11-21T08:17:29.871Z,100.00
2022-11-21T08:20:31.799Z,100.00
2022-11-21T08:23:33.572Z,100.00
2022-11-21T08:26:35.095Z,100.00
2022-11-21T08:29:36.716Z,100.00
2022-11-21T08:32:38.639Z,100.00
2022-11-21T08:35:40.243Z,100.00
2022-11-21T08:38:41.895Z,100.00
2022-11-21T08:42:02.074Z,100.00
2022-11-21T08:45:05.552Z,100.00
2022-11-21T08:48:11.087Z,100.00
2022-11-21T08:51:12.739Z,100.00
2022-11-21T08:54:14.578Z,100.00
2022-11-21T08:57:16.196Z,100.00
2022-11-21T09:00:18.049Z,100.00
2022-11-21T09:03:23.582Z,100.00
2022-11-21T09:06:27.235Z,100.00
2022-11-21T09:09:28.876Z,100.00
2022-11-21T09:12:31.313Z,100.00
2022-11-21T09:15:51.796Z,100.00
2022-11-21T09:18:53.436Z,100.00
2022-11-21T09:21:55.178Z,100.00
2022-11-21T09:24:56.878Z,100.00
2022-11-21T09:28:06.223Z,100.00
2022-11-21T09:31:08.781Z,100.00
2022-11-21T09:34:10.611Z,100.00
2022-11-21T09:37:14.885Z,100.00
2022-11-21T09:40:16.930Z,99.23
2022-11-21T09:43:42.764Z,97.40
2022-11-21T09:46:47.745Z,98.73
2022-11-21T09:49:57.290Z,98.15
2022-11-21T09:53:07.003Z,100.00
2022-11-21T09:56:14.340Z,100.00
2022-11-21T09:59:21.714Z,100.00
2022-11-21T10:02:24.482Z,100.00
2022-11-21T10:05:52.296Z,100.00
2022-11-21T10:09:23.798Z,100.00
2022-11-21T10:12:37.299Z,99.41
2022-11-21T10:15:51.244Z,94.57
2022-11-21T10:19:10.365Z,94.64
2022-11-21T10:22:24.598Z,96.55
2022-11-21T10:25:30.907Z,99.34
2022-11-21T10:28:42.357Z,99.92
2022-11-21T10:31:44.005Z,100.00
2022-11-21T10:34:46.277Z,100.00
2022-11-21T10:38:00.286Z,100.00
2022-11-21T10:41:03.808Z,100.00
2022-11-21T10:44:24.222Z,100.00
2022-11-21T10:47:32.078Z,100.00
2022-11-21T10:50:47.150Z,100.00
2022-11-21T10:54:26.097Z,100.00
2022-11-21T10:57:31.408Z,100.00
2022-11-21T11:00:33.248Z,100.00
2022-11-21T11:03:35.042Z,100.00
2022-11-21T11:06:37.074Z,100.00
2022-11-21T11:09:40.345Z,100.00
2022-11-21T11:13:02.171Z,100.00
2022-11-21T11:16:16.255Z,100.00
2022-11-21T11:19:27.108Z,100.00
2022-11-21T11:22:33.481Z,100.00
2022-11-21T11:25:35.426Z,100.00
2022-11-21T11:28:37.198Z,100.00
2022-11-21T11:31:46.407Z,100.00
2022-11-21T11:34:51.264Z,100.00
2022-11-21T11:38:00.747Z,100.00
2022-11-21T11:41:13.812Z,100.00
2022-11-21T11:44:54.941Z,100.00
2022-11-21T11:47:59.665Z,100.00
2022-11-21T11:51:04.308Z,100.00
2022-11-21T11:54:14.836Z,100.00
2022-11-21T11:57:17.596Z,100.00
2022-11-21T12:00:25.485Z,100.00
2022-11-21T12:03:59.395Z,100.00
2022-11-21T12:08:20.075Z,100.00
2022-11-21T12:11:11.636Z,100.00
2022-11-21T12:15:15.247Z,100.00
2022-11-21T12:18:19.774Z,100.00
2022-11-21T12:21:23.576Z,100.00
2022-11-21T12:24:25.540Z,100.00
2022-11-21T12:27:31.664Z,100.00
2022-11-21T12:30:47.943Z,100.00
2022-11-21T12:34:07.306Z,100.00
2022-11-21T12:37:47.210Z,100.00
2022-11-21T12:41:37.365Z,100.00
2022-11-21T12:45:07.707Z,100.00
2022-11-21T12:48:33.430Z,100.00
2022-11-21T12:52:08.133Z,100.00
2022-11-21T12:55:20.390Z,100.00
2022-11-21T12:58:34.220Z,100.00
2022-11-21T13:01:46.933Z,100.00
2022-11-21T13:04:50.329Z,100.00
2022-11-21T13:07:59.673Z,100.00
2022-11-21T13:11:48.677Z,100.00
2022-11-21T13:15:35.418Z,100.00
2022-11-21T13:18:45.941Z,100.00
2022-11-21T13:21:49.835Z,100.00
2022-11-21T13:24:51.415Z,100.00
2022-11-21T13:27:54.893Z,100.00
2022-11-21T13:30:57.878Z,100.00
2022-11-21T13:34:01.022Z,100.00
2022-11-21T13:37:03.947Z,100.00
2022-11-21T13:40:31.404Z,100.00
2022-11-21T13:43:34.563Z,100.00
2022-11-21T13:47:05.622Z,100.00
2022-11-21T13:50:22.699Z,100.00
2022-11-21T13:54:02.304Z,100.00
2022-11-21T13:57:25.303Z,100.00
2022-11-21T14:00:48.767Z,100.00
2022-11-21T14:04:10.488Z,100.00
2022-11-21T14:07:38.931Z,100.00
2022-11-21T14:10:42.896Z,100.00
2022-11-21T14:13:47.064Z,100.00
2022-11-21T14:16:53.926Z,100.00
2022-11-21T14:19:57.458Z,100.00
2022-11-21T14:23:14.740Z,100.00
2022-11-21T14:26:20.118Z,100.00
2022-11-21T14:29:29.541Z,100.00
2022-11-21T14:32:32.222Z,100.00
2022-11-21T14:35:34.452Z,100.00
2022-11-21T14:38:43.937Z,100.00
2022-11-21T14:41:50.237Z,100.00
2022-11-21T14:45:13.777Z,100.00
2022-11-21T14:48:15.373Z,100.00
2022-11-21T14:51:19.083Z,100.00
2022-11-21T14:54:23.307Z,100.00
2022-11-21T14:57:29.238Z,100.00
2022-11-21T15:04:01.251Z,100.00
2022-11-21T15:07:03.970Z,100.00
2022-11-21T15:10:27.285Z,100.00
2022-11-21T15:13:44.956Z,100.00
2022-11-21T15:16:54.237Z,100.00
2022-11-21T15:20:17.805Z,100.00
2022-11-21T15:23:34.079Z,100.00
2022-11-21T15:26:36.356Z,100.00
2022-11-21T15:29:38.008Z,100.00
2022-11-21T15:32:58.349Z,100.00
2022-11-21T15:36:12.487Z,100.00
2022-11-21T15:39:19.789Z,100.00
2022-11-21T15:42:29.729Z,100.00
2022-11-21T15:45:31.445Z,100.00
2022-11-21T15:48:33.168Z,100.00
2022-11-21T15:54:56.426Z,100.00
2022-11-21T15:57:10.964Z,100.00
2022-11-21T15:57:58.165Z,100.00
2022-11-21T16:01:00.401Z,100.00
2022-11-21T16:04:04.913Z,100.00
2022-11-21T16:07:06.782Z,100.00
2022-11-21T16:10:14.894Z,100.00
2022-11-21T16:13:21.388Z,100.00
2022-11-21T16:16:23.544Z,100.00
2022-11-21T16:19:26.004Z,100.00
2022-11-21T16:22:27.688Z,100.00
2022-11-21T16:25:29.421Z,100.00
2022-11-21T16:28:31.098Z,100.00
2022-11-21T16:31:32.951Z,100.00
2022-11-21T16:34:34.604Z,100.00
2022-11-21T16:37:36.225Z,100.00
2022-11-21T16:40:39.511Z,100.00
2022-11-21T16:43:47.988Z,100.00
2022-11-21T16:46:51.839Z,100.00
2022-11-21T16:49:53.707Z,100.00
2022-11-21T16:52:55.206Z,100.00
2022-11-21T16:56:00.967Z,100.00
2022-11-21T16:59:02.855Z,100.00
2022-11-21T17:02:04.824Z,100.00
2022-11-21T17:05:06.997Z,100.00
2022-11-21T17:08:08.694Z,100.00
2022-11-21T17:11:17.852Z,100.00
2022-11-21T17:14:19.423Z,100.00
2022-11-21T17:17:21.282Z,100.00
2022-11-21T17:20:22.929Z,100.00
2022-11-21T17:23:24.584Z,100.00
2022-11-21T17:26:28.324Z,100.00
2022-11-21T17:29:30.215Z,100.00
2022-11-21T17:32:31.936Z,100.00
2022-11-21T17:35:33.612Z,100.00
2022-11-21T17:38:35.619Z,100.00
2022-11-21T17:41:38.257Z,100.00
2022-11-21T17:44:39.893Z,100.00
2022-11-21T17:47:42.293Z,100.00
2022-11-21T17:50:43.918Z,100.00
2022-11-21T17:53:47.295Z,100.00
2022-11-21T17:56:53.932Z,100.00
2022-11-21T17:59:58.732Z,100.00
2022-11-21T18:03:00.688Z,100.00
2022-11-21T18:06:05.037Z,100.00
2022-11-21T18:09:07.564Z,100.00
2022-11-21T18:12:09.462Z,100.00
2022-11-21T18:15:11.200Z,100.00
2022-11-21T18:18:13.320Z,100.00
2022-11-21T18:21:15.997Z,100.00
2022-11-21T18:24:17.814Z,100.00
2022-11-21T18:27:19.614Z,100.00
2022-11-21T18:30:21.345Z,100.00
2022-11-21T18:33:23.123Z,100.00
2022-11-21T18:36:26.143Z,100.00
2022-11-21T18:39:28.442Z,100.00
2022-11-21T18:42:32.334Z,100.00
2022-11-21T18:45:33.941Z,100.00
2022-11-21T18:49:00.987Z,100.00
2022-11-21T18:51:57.903Z,100.00
2022-11-21T18:54:59.666Z,100.00
2022-11-21T18:58:01.219Z,100.00
2022-11-21T19:01:07.692Z,100.00
2022-11-21T19:04:09.804Z,100.00
2022-11-21T19:07:11.705Z,100.00
2022-11-21T19:10:41.541Z,100.00
2022-11-21T19:13:35.248Z,100.00
2022-11-21T19:16:36.956Z,100.00
2022-11-21T19:19:38.622Z,100.00
2022-11-21T19:22:40.510Z,100.00
2022-11-21T19:25:42.102Z,100.00
2022-11-21T19:28:44.821Z,100.00
2022-11-21T19:31:46.661Z,100.00
2022-11-21T19:34:48.710Z,100.00
2022-11-21T19:37:50.582Z,100.00
2022-11-21T19:41:10.875Z,100.00
2022-11-21T19:44:12.753Z,100.00
2022-11-21T19:47:14.307Z,100.00
2022-11-21T19:50:15.953Z,100.00
2022-11-21T19:53:17.821Z,100.00
2022-11-21T19:56:24.715Z,100.00
2022-11-21T19:59:27.600Z,100.00
2022-11-21T20:02:29.664Z,100.00
2022-11-21T20:05:31.292Z,100.00
2022-11-21T20:08:33.700Z,100.00
2022-11-21T20:11:36.213Z,100.00
2022-11-21T20:14:37.993Z,100.00
2022-11-21T20:17:39.869Z,100.00
2022-11-21T20:20:41.681Z,100.00
2022-11-21T20:23:43.679Z,100.00
2022-11-21T20:26:45.798Z,100.00
2022-11-21T20:29:47.516Z,100.00
2022-11-21T20:32:49.197Z,100.00
2022-11-21T20:35:50.830Z,100.00
2022-11-21T20:38:57.895Z,100.00
2022-11-21T20:42:00.194Z,100.00
2022-11-21T20:48:23.766Z,100.00
2022-11-21T20:54:47.088Z,100.00
2022-11-21T20:57:48.580Z,100.00
2022-11-21T21:00:50.240Z,100.00
2022-11-21T21:03:51.945Z,100.00
2022-11-21T21:06:53.444Z,100.00
2022-11-21T21:09:56.960Z,100.00
2022-11-21T21:12:58.724Z,100.00
2022-11-21T21:16:04.389Z,100.00
2022-11-21T21:19:06.563Z,100.00
2022-11-21T21:22:09.268Z,100.00
2022-11-21T21:25:11.022Z,100.00
2022-11-21T21:28:12.637Z,100.00
2022-11-21T21:31:17.085Z,100.00
2022-11-21T21:34:20.441Z,100.00
2022-11-21T21:37:22.151Z,100.00
2022-11-21T21:40:23.809Z,100.00
2022-11-21T21:43:25.461Z,100.00
2022-11-21T21:46:28.072Z,100.00
2022-11-21T21:49:29.794Z,100.00
2022-11-21T21:52:31.721Z,100.00
2022-11-21T21:55:33.497Z,100.00
2022-11-21T21:58:38.678Z,100.00
2022-11-21T22:01:42.799Z,100.00
2022-11-21T22:04:49.140Z,100.00
2022-11-21T22:07:53.544Z,100.00
2022-11-21T22:11:00.583Z,100.00
2022-11-21T22:14:06.578Z,100.00
2022-11-21T22:17:08.644Z,100.00
2022-11-21T22:20:10.765Z,100.00
2022-11-21T22:23:12.461Z,100.00
2022-11-21T22:26:14.407Z,100.00
2022-11-21T22:29:16.169Z,100.00
2022-11-21T22:32:19.805Z,100.00
2022-11-21T22:35:21.840Z,100.00
2022-11-21T22:38:23.469Z,100.00
2022-11-21T22:41:27.317Z,100.00
2022-11-21T22:44:29.290Z,100.00
2022-11-21T22:47:31.122Z,100.00
2022-11-21T22:50:32.944Z,100.00
2022-11-21T22:53:39.962Z,100.00
2022-11-21T22:56:42.000Z,100.00
2022-11-21T22:59:43.693Z,100.00
2022-11-21T23:02:45.356Z,100.00
2022-11-21T23:05:46.970Z,100.00
2022-11-21T23:08:49.391Z,100.00
2022-11-21T23:11:51.052Z,100.00
2022-11-21T23:14:52.933Z,100.00
2022-11-21T23:17:54.737Z,100.00
2022-11-21T23:20:56.622Z,100.00
2022-11-21T23:23:58.481Z,100.00
2022-11-21T23:27:00.471Z,100.00
2022-11-21T23:30:02.193Z,100.00
2022-11-21T23:33:04.055Z,100.00
2022-11-21T23:36:06.265Z,100.00
2022-11-21T23:39:07.951Z,100.00
2022-11-21T23:42:09.491Z,100.00
2022-11-21T23:45:11.125Z,100.00
2022-11-21T23:48:12.834Z,100.00
2022-11-21T23:51:14.462Z,100.00
2022-11-21T23:54:17.166Z,100.00
2022-11-21T23:57:19.007Z,100.00
